createdAt,value
2023-03-10T00:01:41.907Z,6.47
2023-03-10T00:04:10.285Z,6.07
2023-03-10T00:06:38.635Z,6.53
2023-03-10T00:09:06.232Z,6.72
2023-03-10T00:11:34.133Z,6.78
2023-03-10T00:14:01.401Z,7.20
2023-03-10T00:16:30.100Z,6.15
2023-03-10T00:18:57.889Z,7.07
2023-03-10T00:21:27.658Z,6.28
2023-03-10T00:23:55.064Z,6.70
2023-03-10T00:26:23.807Z,6.93
2023-03-10T00:28:51.115Z,6.75
2023-03-10T00:31:21.494Z,6.97
2023-03-10T00:33:49.825Z,6.10
2023-03-10T00:36:18.639Z,6.40
2023-03-10T00:38:49.288Z,6.22
2023-03-10T00:41:19.367Z,6.78
2023-03-10T00:43:47.338Z,6.13
2023-03-10T00:46:14.804Z,7.13
2023-03-10T00:48:42.410Z,7.22
2023-03-10T00:51:10.108Z,6.60
2023-03-10T00:53:39.784Z,6.75
2023-03-10T00:56:18.443Z,5.82
2023-03-10T00:58:46.592Z,5.75
2023-03-10T01:01:20.751Z,4.30
2023-03-10T01:03:51.817Z,5.75
2023-03-10T01:06:19.930Z,6.45
2023-03-10T01:08:47.933Z,4.30
2023-03-10T01:11:20.093Z,5.35
2023-03-10T01:13:47.585Z,4.55
2023-03-10T01:16:15.894Z,4.95
2023-03-10T01:18:43.476Z,4.63
2023-03-10T01:21:24.469Z,3.92
2023-03-10T01:23:51.903Z,3.80
2023-03-10T01:26:19.477Z,4.07
2023-03-10T01:28:50.771Z,4.25
2023-03-10T01:31:18.511Z,4.03
2023-03-10T01:33:46.871Z,3.85
2023-03-10T01:36:20.335Z,3.65
2023-03-10T01:38:51.389Z,3.72
2023-03-10T01:41:19.478Z,4.93
2023-03-10T01:43:49.454Z,3.90
2023-03-10T01:46:32.076Z,4.00
2023-03-10T01:49:36.224Z,3.92
2023-03-10T01:52:08.931Z,3.22
2023-03-10T01:54:40.869Z,4.10
2023-03-10T01:57:09.526Z,4.05
2023-03-10T01:59:39.649Z,4.05
2023-03-10T02:02:07.521Z,3.58
2023-03-10T02:04:36.340Z,4.20
2023-03-10T02:07:05.340Z,4.10
2023-03-10T02:09:34.620Z,3.67
2023-03-10T02:12:04.116Z,4.40
2023-03-10T02:14:32.266Z,4.68
2023-03-10T02:16:59.766Z,4.20
2023-03-10T02:19:45.899Z,4.50
2023-03-10T02:22:15.543Z,4.50
2023-03-10T02:24:52.760Z,4.63
2023-03-10T02:27:24.945Z,5.13
2023-03-10T02:29:59.907Z,4.63
2023-03-10T02:32:35.430Z,4.53
2023-03-10T02:37:34.545Z,4.85
2023-03-10T02:40:04.969Z,5.25
2023-03-10T02:42:34.892Z,5.30
2023-03-10T02:45:04.149Z,5.47
2023-03-10T02:47:33.387Z,5.20
2023-03-10T02:50:00.634Z,5.53
2023-03-10T02:52:34.174Z,4.80
2023-03-10T02:55:01.577Z,4.22
2023-03-10T02:57:28.818Z,3.53
2023-03-10T02:59:56.487Z,4.43
2023-03-10T03:02:24.011Z,3.28
2023-03-10T03:04:51.770Z,3.30
2023-03-10T03:07:19.264Z,3.13
2023-03-10T03:09:46.570Z,3.40
2023-03-10T03:12:14.466Z,2.70
2023-03-10T03:14:41.892Z,3.03
2023-03-10T03:17:09.221Z,3.55
2023-03-10T03:19:36.690Z,3.22
2023-03-10T03:22:04.372Z,3.22
2023-03-10T03:24:32.548Z,3.58
2023-03-10T03:27:00.820Z,3.42
2023-03-10T03:29:29.602Z,3.65
2023-03-10T03:31:57.122Z,3.80
2023-03-10T03:34:29.346Z,2.88
2023-03-10T03:37:00.314Z,3.90
2023-03-10T03:39:34.718Z,3.30
2023-03-10T03:42:05.558Z,3.88
2023-03-10T03:44:42.385Z,3.97
2023-03-10T03:47:10.884Z,4.47
2023-03-10T03:49:39.129Z,4.65
2023-03-10T03:52:07.517Z,4.72
2023-03-10T03:54:35.289Z,5.00
2023-03-10T03:57:03.182Z,4.75
2023-03-10T03:59:30.695Z,5.07
2023-03-10T04:01:58.035Z,4.55
2023-03-10T04:04:26.072Z,5.32
2023-03-10T04:06:53.915Z,4.38
2023-03-10T04:09:21.496Z,5.05
2023-03-10T04:11:49.243Z,5.55
2023-03-10T04:14:16.505Z,5.68
2023-03-10T04:16:44.461Z,5.28
2023-03-10T04:19:12.457Z,5.50
2023-03-10T04:21:43.948Z,5.15
2023-03-10T04:24:12.211Z,4.80
2023-03-10T04:26:39.708Z,5.13
2023-03-10T04:29:07.881Z,3.45
2023-03-10T04:31:37.429Z,4.72
2023-03-10T04:34:06.736Z,4.82
2023-03-10T04:36:34.402Z,4.03
2023-03-10T04:39:05.066Z,3.43
2023-03-10T04:41:33.000Z,4.03
2023-03-10T04:44:00.517Z,4.10
2023-03-10T04:46:31.738Z,3.70
2023-03-10T04:51:26.537Z,2.78
2023-03-10T04:53:57.280Z,3.25
2023-03-10T04:56:29.143Z,3.30
2023-03-10T04:58:56.697Z,2.45
2023-03-10T05:01:25.805Z,2.70
2023-03-10T05:04:03.527Z,2.83
2023-03-10T05:06:31.942Z,2.65
2023-03-10T05:09:32.833Z,2.90
2023-03-10T05:12:00.623Z,2.75
2023-03-10T05:14:31.570Z,1.73
2023-03-10T05:16:59.043Z,1.80
2023-03-10T05:19:28.818Z,1.65
2023-03-10T05:21:58.076Z,2.03
2023-03-10T05:24:25.669Z,1.92
2023-03-10T05:26:53.195Z,1.83
2023-03-10T05:29:21.159Z,1.88
2023-03-10T05:31:56.397Z,1.67
2023-03-10T05:34:30.556Z,1.50
2023-03-10T05:37:01.029Z,1.85
2023-03-10T05:39:29.232Z,1.77
2023-03-10T05:41:59.296Z,1.63
2023-03-10T05:44:29.405Z,1.15
2023-03-10T05:46:56.811Z,1.00
2023-03-10T05:49:24.588Z,1.10
2023-03-10T05:51:52.923Z,1.10
2023-03-10T05:54:20.815Z,1.45
2023-03-10T05:56:48.424Z,1.83
2023-03-10T05:59:15.946Z,1.27
2023-03-10T06:01:43.444Z,1.20
2023-03-10T06:04:10.815Z,1.40
2023-03-10T06:06:38.634Z,1.20
2023-03-10T06:09:06.596Z,1.15
2023-03-10T06:11:33.906Z,1.70
2023-03-10T06:14:01.309Z,1.20
2023-03-10T06:16:29.200Z,1.58
2023-03-10T06:18:56.872Z,1.08
2023-03-10T06:21:25.321Z,1.17
2023-03-10T06:23:52.751Z,1.02
2023-03-10T06:26:20.424Z,1.05
2023-03-10T06:28:47.999Z,0.82
2023-03-10T06:31:21.349Z,0.70
2023-03-10T06:33:48.849Z,0.82
2023-03-10T06:36:17.492Z,0.90
2023-03-10T06:38:45.176Z,0.80
2023-03-10T06:41:12.974Z,0.90
2023-03-10T06:43:40.861Z,0.80
2023-03-10T06:46:10.173Z,0.85
2023-03-10T06:48:39.326Z,0.60
2023-03-10T06:51:11.377Z,1.38
2023-03-10T06:53:39.164Z,0.80
2023-03-10T06:56:15.287Z,0.82
2023-03-10T06:58:43.039Z,0.77
2023-03-10T07:01:27.065Z,0.80
2023-03-10T07:03:54.437Z,1.02
2023-03-10T07:06:22.559Z,0.60
2023-03-10T07:08:50.759Z,0.82
2023-03-10T07:11:18.250Z,0.70
2023-03-10T07:13:45.557Z,0.57
2023-03-10T07:16:13.013Z,0.98
2023-03-10T07:18:40.604Z,0.60
2023-03-10T07:21:12.629Z,0.40
2023-03-10T07:23:40.058Z,0.70
2023-03-10T07:26:09.171Z,0.80
2023-03-10T07:28:37.771Z,0.70
2023-03-10T07:31:10.945Z,0.40
2023-03-10T07:33:39.483Z,0.47
2023-03-10T07:36:12.572Z,0.50
2023-03-10T07:38:40.264Z,0.85
2023-03-10T07:41:15.746Z,0.60
2023-03-10T07:43:43.266Z,0.60
2023-03-10T07:46:12.880Z,0.60
2023-03-10T07:51:09.157Z,0.52
2023-03-10T07:53:36.912Z,0.60
2023-03-10T07:56:09.175Z,0.60
2023-03-10T07:58:37.184Z,0.75
2023-03-10T08:01:05.603Z,0.77
2023-03-10T08:03:34.240Z,0.77
2023-03-10T08:06:02.506Z,0.80
2023-03-10T08:08:29.892Z,0.90
2023-03-10T08:11:06.234Z,0.60
2023-03-10T08:13:33.910Z,0.77
2023-03-10T08:16:02.128Z,0.80
2023-03-10T08:18:31.454Z,0.95
2023-03-10T08:20:59.302Z,1.00
2023-03-10T08:23:26.826Z,0.68
2023-03-10T08:25:54.157Z,0.68
2023-03-10T08:28:21.595Z,1.35
2023-03-10T08:31:03.066Z,0.90
2023-03-10T08:33:31.951Z,0.90
2023-03-10T08:36:10.000Z,0.82
2023-03-10T08:38:38.452Z,0.77
2023-03-10T08:41:13.487Z,1.02
2023-03-10T08:43:41.160Z,1.33
2023-03-10T08:46:09.909Z,1.15
2023-03-10T08:48:37.633Z,0.80
2023-03-10T08:51:06.211Z,1.10
2023-03-10T08:53:36.420Z,1.02
2023-03-10T08:58:34.049Z,1.10
2023-03-10T09:01:01.540Z,1.30
2023-03-10T09:03:31.549Z,1.00
2023-03-10T09:05:59.248Z,1.38
2023-03-10T09:08:27.844Z,1.15
2023-03-10T09:10:55.529Z,1.00
2023-03-10T09:13:23.032Z,1.52
2023-03-10T09:15:50.760Z,1.17
2023-03-10T09:18:18.035Z,1.58
2023-03-10T09:20:46.444Z,1.80
2023-03-10T09:23:15.111Z,0.90
2023-03-10T09:25:42.625Z,1.23
2023-03-10T09:28:11.646Z,1.10
2023-03-10T09:30:40.957Z,1.35
2023-03-10T09:33:14.491Z,1.15
2023-03-10T09:35:52.486Z,1.30
2023-03-10T09:38:25.766Z,1.10
2023-03-10T09:41:13.976Z,1.58
2023-03-10T09:43:50.438Z,1.60
2023-03-10T09:46:26.346Z,1.30
2023-03-10T09:49:01.644Z,1.50
2023-03-10T09:51:29.512Z,1.42
2023-03-10T09:54:03.649Z,1.45
2023-03-10T09:56:35.304Z,1.90
2023-03-10T09:59:11.830Z,2.22
2023-03-10T10:01:44.268Z,1.98
2023-03-10T10:04:15.780Z,1.80
2023-03-10T10:06:46.699Z,1.25
2023-03-10T10:09:22.961Z,2.55
2023-03-10T10:11:50.589Z,2.20
2023-03-10T10:14:30.016Z,2.75
2023-03-10T10:19:52.666Z,1.85
2023-03-10T10:22:26.120Z,2.10
2023-03-10T10:25:12.449Z,2.28
2023-03-10T10:27:41.532Z,2.55
2023-03-10T10:30:36.417Z,2.85
2023-03-10T10:33:14.934Z,2.15
2023-03-10T10:36:05.791Z,2.85
2023-03-10T10:38:33.357Z,2.10
2023-03-10T10:41:10.014Z,2.33
2023-03-10T10:43:43.572Z,2.63
2023-03-10T10:46:13.230Z,2.20
2023-03-10T10:48:46.828Z,2.30
2023-03-10T10:51:29.350Z,1.98
2023-03-10T10:53:58.342Z,2.22
2023-03-10T10:56:28.648Z,2.10
2023-03-10T10:59:18.386Z,2.53
2023-03-10T11:01:57.700Z,2.85
2023-03-10T11:04:28.107Z,2.83
2023-03-10T11:07:17.201Z,3.70
2023-03-10T11:09:44.462Z,3.58
2023-03-10T11:12:22.059Z,2.88
2023-03-10T11:15:08.456Z,2.22
2023-03-10T11:17:44.310Z,3.03
2023-03-10T11:20:42.911Z,3.00
2023-03-10T11:23:26.973Z,2.88
2023-03-10T11:26:15.726Z,2.60
2023-03-10T11:28:55.951Z,2.90
2023-03-10T11:34:18.754Z,12.23
2023-03-10T11:36:56.266Z,9.48
2023-03-10T11:39:48.496Z,11.80
2023-03-10T11:42:36.534Z,5.03
2023-03-10T11:45:29.252Z,5.80
2023-03-10T11:48:18.897Z,5.05
2023-03-10T11:50:49.293Z,5.07
2023-03-10T11:55:45.688Z,3.85
2023-03-10T11:58:29.304Z,3.65
2023-03-10T12:00:56.866Z,3.20
2023-03-10T12:03:30.479Z,3.13
2023-03-10T12:05:59.377Z,3.08
2023-03-10T12:08:32.274Z,3.13
2023-03-10T12:11:04.944Z,3.30
2023-03-10T12:13:47.427Z,2.97
2023-03-10T12:16:24.182Z,2.95
2023-03-10T12:18:52.780Z,3.95
2023-03-10T12:21:30.872Z,4.55
2023-03-10T12:24:01.186Z,3.15
2023-03-10T12:29:20.729Z,2.20
2023-03-10T12:31:53.341Z,3.17
2023-03-10T12:34:23.452Z,2.28
2023-03-10T12:36:53.111Z,2.17
2023-03-10T12:39:43.880Z,3.33
2023-03-10T12:42:34.546Z,2.40
2023-03-10T12:45:25.620Z,2.25
2023-03-10T12:48:01.627Z,2.53
2023-03-10T12:50:35.947Z,1.90
2023-03-10T12:53:24.701Z,2.22
2023-03-10T12:56:11.857Z,2.33
2023-03-10T12:58:41.268Z,1.77
2023-03-10T13:01:12.187Z,1.80
2023-03-10T13:03:46.924Z,1.58
2023-03-10T13:06:14.286Z,1.85
2023-03-10T13:08:52.810Z,1.30
2023-03-10T13:11:20.074Z,1.20
2023-03-10T13:13:48.748Z,1.48
2023-03-10T13:16:18.655Z,1.25
2023-03-10T13:18:51.057Z,1.77
2023-03-10T13:21:29.384Z,1.20
2023-03-10T13:23:58.436Z,1.15
2023-03-10T13:26:27.997Z,1.63
2023-03-10T13:28:57.982Z,1.30
2023-03-10T13:31:28.380Z,1.13
2023-03-10T13:34:12.722Z,1.60
2023-03-10T13:36:40.597Z,1.30
2023-03-10T13:39:17.785Z,1.60
2023-03-10T13:41:47.319Z,1.65
2023-03-10T13:44:22.072Z,1.52
2023-03-10T13:46:52.125Z,1.40
2023-03-10T13:51:56.137Z,1.48
2023-03-10T13:54:32.412Z,1.25
2023-03-10T13:57:21.715Z,0.93
2023-03-10T13:59:49.473Z,1.20
2023-03-10T14:02:29.606Z,1.13
2023-03-10T14:07:26.011Z,1.20
2023-03-10T14:10:05.364Z,1.10
2023-03-10T14:12:38.284Z,1.17
2023-03-10T14:15:18.893Z,1.23
2023-03-10T14:18:08.931Z,1.13
2023-03-10T14:23:26.530Z,0.90
2023-03-10T14:25:55.955Z,1.38
2023-03-10T14:28:31.870Z,1.23
2023-03-10T14:31:00.245Z,1.10
2023-03-10T14:33:27.486Z,0.90
2023-03-10T14:35:57.126Z,0.80
2023-03-10T14:38:24.533Z,1.00
2023-03-10T14:40:54.960Z,1.10
2023-03-10T14:43:27.148Z,1.40
2023-03-10T14:45:56.974Z,1.13
2023-03-10T14:48:26.678Z,1.08
2023-03-10T14:50:56.681Z,1.45
2023-03-10T14:53:25.889Z,1.20
2023-03-10T14:55:55.987Z,0.95
2023-03-10T14:58:35.919Z,1.13
2023-03-10T15:01:03.334Z,1.60
2023-03-10T15:03:30.585Z,1.13
2023-03-10T15:05:57.877Z,1.33
2023-03-10T15:08:25.464Z,1.10
2023-03-10T15:10:53.672Z,1.40
2023-03-10T15:13:23.225Z,1.48
2023-03-10T15:15:50.983Z,1.20
2023-03-10T15:18:20.322Z,1.23
2023-03-10T15:20:48.229Z,1.83
2023-03-10T15:23:19.368Z,1.40
2023-03-10T15:25:47.653Z,1.10
2023-03-10T15:28:15.167Z,1.50
2023-03-10T15:30:42.578Z,1.58
2023-03-10T15:33:10.813Z,1.42
2023-03-10T15:35:38.693Z,1.20
2023-03-10T15:38:09.252Z,1.02
2023-03-10T15:40:38.928Z,1.10
2023-03-10T15:43:06.486Z,1.33
2023-03-10T15:45:35.153Z,1.20
2023-03-10T15:48:04.019Z,1.33
2023-03-10T15:50:31.917Z,1.25
2023-03-10T15:52:59.834Z,1.00
2023-03-10T15:55:28.546Z,1.48
2023-03-10T15:57:57.694Z,1.42
2023-03-10T16:00:26.496Z,1.55
2023-03-10T16:02:54.432Z,1.65
2023-03-10T16:05:23.018Z,1.30
2023-03-10T16:07:51.308Z,1.40
2023-03-10T16:10:20.316Z,1.20
2023-03-10T16:12:47.984Z,1.40
2023-03-10T16:15:18.103Z,1.75
2023-03-10T16:17:46.043Z,1.60
2023-03-10T16:20:14.124Z,1.88
2023-03-10T16:22:43.188Z,1.65
2023-03-10T16:25:15.973Z,1.70
2023-03-10T16:27:44.708Z,1.70
2023-03-10T16:30:14.069Z,1.75
2023-03-10T16:32:45.745Z,1.75
2023-03-10T16:35:15.857Z,1.60
2023-03-10T16:37:44.037Z,1.10
2023-03-10T16:40:12.111Z,1.80
2023-03-10T16:42:43.760Z,1.48
2023-03-10T16:45:11.453Z,1.40
2023-03-10T16:47:38.845Z,2.00
2023-03-10T16:50:06.567Z,1.67
2023-03-10T16:52:39.198Z,1.30
2023-03-10T16:55:08.833Z,1.67
2023-03-10T16:57:36.336Z,1.70
2023-03-10T17:00:05.694Z,2.40
2023-03-10T17:02:34.616Z,1.77
2023-03-10T17:05:02.384Z,1.97
2023-03-10T17:07:29.807Z,1.88
2023-03-10T17:09:57.103Z,1.73
2023-03-10T17:12:24.280Z,2.30
2023-03-10T17:14:51.887Z,2.75
2023-03-10T17:17:19.574Z,2.10
2023-03-10T17:19:52.599Z,2.03
2023-03-10T17:22:20.018Z,2.30
2023-03-10T17:24:55.647Z,2.10
2023-03-10T17:27:23.745Z,2.55
2023-03-10T17:29:51.165Z,2.45
2023-03-10T17:32:18.699Z,2.70
2023-03-10T17:34:52.019Z,4.00
2023-03-10T17:37:19.450Z,2.97
2023-03-10T17:39:48.452Z,3.00
2023-03-10T17:42:15.746Z,2.30
2023-03-10T17:44:43.131Z,3.10
2023-03-10T17:47:12.322Z,3.50
2023-03-10T17:49:41.055Z,2.90
2023-03-10T17:52:08.834Z,3.50
2023-03-10T17:54:36.285Z,4.65
2023-03-10T17:57:03.951Z,3.67
2023-03-10T17:59:32.795Z,4.43
2023-03-10T18:02:02.713Z,3.92
2023-03-10T18:04:30.663Z,3.50
2023-03-10T18:06:58.149Z,2.72
2023-03-10T18:09:25.428Z,3.30
2023-03-10T18:11:55.662Z,3.40
2023-03-10T18:14:24.519Z,3.03
2023-03-10T18:16:52.055Z,3.00
2023-03-10T18:19:21.394Z,2.87
2023-03-10T18:21:50.006Z,2.90
2023-03-10T18:24:17.613Z,2.78
2023-03-10T18:26:45.714Z,2.72
2023-03-10T18:29:14.242Z,3.00
2023-03-10T18:31:41.784Z,5.07
2023-03-10T18:34:10.239Z,3.88
2023-03-10T18:36:37.694Z,3.20
2023-03-10T18:39:07.300Z,5.95
2023-03-10T18:41:35.478Z,5.18
2023-03-10T18:44:04.913Z,10.27
2023-03-10T18:46:32.236Z,10.27
2023-03-10T18:48:59.712Z,8.40
2023-03-10T18:51:28.027Z,4.18
2023-03-10T18:53:55.642Z,4.35
2023-03-10T18:56:26.382Z,5.30
2023-03-10T18:58:54.292Z,4.50
2023-03-10T19:01:21.746Z,4.85
2023-03-10T19:03:49.361Z,5.43
2023-03-10T19:06:16.734Z,4.13
2023-03-10T19:08:44.304Z,4.20
2023-03-10T19:11:14.102Z,6.07
2023-03-10T19:13:47.391Z,4.93
2023-03-10T19:16:18.948Z,4.22
2023-03-10T19:18:46.302Z,6.68
2023-03-10T19:21:13.516Z,5.43
2023-03-10T19:23:41.645Z,7.47
2023-03-10T19:26:09.695Z,7.57
2023-03-10T19:28:37.834Z,5.20
2023-03-10T19:31:10.624Z,5.72
2023-03-10T19:33:39.914Z,7.15
2023-03-10T19:36:11.653Z,5.35
2023-03-10T19:38:40.419Z,5.45
2023-03-10T19:41:17.398Z,7.03
2023-03-10T19:43:47.273Z,5.78
2023-03-10T19:46:15.961Z,5.80
2023-03-10T19:48:44.478Z,5.70
2023-03-10T19:51:24.692Z,4.80
2023-03-10T19:53:54.506Z,6.85
2023-03-10T19:56:22.521Z,4.82
2023-03-10T19:58:50.497Z,5.30
2023-03-10T20:01:23.309Z,6.00
2023-03-10T20:03:52.081Z,4.47
2023-03-10T20:06:19.827Z,5.13
2023-03-10T20:08:47.301Z,4.30
2023-03-10T20:11:15.050Z,6.70
2023-03-10T20:13:43.177Z,4.55
2023-03-10T20:16:13.422Z,4.03
2023-03-10T20:18:41.684Z,4.10
2023-03-10T20:21:12.543Z,4.13
2023-03-10T20:23:40.283Z,4.05
2023-03-10T20:26:10.141Z,4.47
2023-03-10T20:28:39.625Z,4.50
2023-03-10T20:31:07.081Z,4.70
2023-03-10T20:33:36.324Z,6.25
2023-03-10T20:36:04.428Z,6.95
2023-03-10T20:38:31.656Z,8.57
2023-03-10T20:40:59.063Z,6.65
2023-03-10T20:43:27.189Z,6.03
2023-03-10T20:45:54.743Z,5.65
2023-03-10T20:48:26.221Z,5.00
2023-03-10T20:50:56.472Z,6.15
2023-03-10T20:53:24.137Z,5.93
2023-03-10T20:55:51.412Z,8.27
2023-03-10T20:58:18.830Z,12.50
2023-03-10T21:00:49.207Z,8.40
2023-03-10T21:03:16.672Z,7.05
2023-03-10T21:05:44.630Z,6.85
2023-03-10T21:08:12.056Z,6.63
2023-03-10T21:10:39.807Z,6.68
2023-03-10T21:13:07.598Z,6.65
2023-03-10T21:15:34.970Z,6.78
2023-03-10T21:18:02.266Z,7.00
2023-03-10T21:20:29.616Z,7.15
2023-03-10T21:22:58.649Z,6.70
2023-03-10T21:25:28.589Z,7.15
2023-03-10T21:28:00.550Z,7.35
2023-03-10T21:30:33.507Z,6.95
2023-03-10T21:33:00.914Z,7.47
2023-03-10T21:35:30.562Z,7.00
2023-03-10T21:37:59.320Z,7.15
2023-03-10T21:40:28.871Z,6.57
2023-03-10T21:42:56.183Z,6.50
2023-03-10T21:45:25.427Z,6.03
2023-03-10T21:47:52.789Z,7.15
2023-03-10T21:50:20.399Z,5.93
2023-03-10T21:52:48.292Z,6.95
2023-03-10T21:55:19.422Z,6.95
2023-03-10T21:57:47.118Z,6.70
2023-03-10T22:00:16.442Z,5.53
2023-03-10T22:02:43.848Z,5.43
2023-03-10T22:05:17.019Z,5.63
2023-03-10T22:07:44.913Z,5.50
2023-03-10T22:10:13.242Z,5.60
2023-03-10T22:12:40.591Z,5.28
2023-03-10T22:15:09.768Z,4.95
2023-03-10T22:17:37.598Z,5.43
2023-03-10T22:20:07.142Z,4.45
2023-03-10T22:22:35.762Z,4.28
2023-03-10T22:25:03.487Z,4.32
2023-03-10T22:27:30.763Z,4.30
2023-03-10T22:29:58.014Z,4.78
2023-03-10T22:32:25.250Z,4.50
2023-03-10T22:34:52.728Z,4.88
2023-03-10T22:37:20.159Z,7.07
2023-03-10T22:39:47.680Z,6.40
2023-03-10T22:42:16.042Z,5.38
2023-03-10T22:44:43.328Z,5.45
2023-03-10T22:47:10.795Z,4.90
2023-03-10T22:49:40.821Z,4.88
2023-03-10T22:54:36.628Z,3.03
2023-03-10T22:57:07.841Z,3.45
2023-03-10T22:59:35.161Z,3.17
2023-03-10T23:02:02.539Z,2.60
2023-03-10T23:04:29.949Z,2.00
2023-03-10T23:06:57.564Z,2.60
2023-03-10T23:09:24.888Z,3.10
2023-03-10T23:11:52.313Z,2.95
2023-03-10T23:14:19.747Z,3.40
2023-03-10T23:16:47.153Z,2.60
2023-03-10T23:19:14.592Z,2.55
2023-03-10T23:21:41.992Z,1.92
2023-03-10T23:24:09.230Z,2.25
2023-03-10T23:26:37.553Z,2.58
2023-03-10T23:29:04.852Z,1.95
2023-03-10T23:31:32.308Z,1.35
2023-03-10T23:33:59.725Z,1.58
2023-03-10T23:36:27.102Z,1.75
2023-03-10T23:38:54.556Z,1.73
2023-03-10T23:41:21.983Z,1.73
2023-03-10T23:43:51.605Z,1.80
2023-03-10T23:46:22.001Z,2.40
2023-03-10T23:48:49.591Z,2.13
2023-03-10T23:51:17.409Z,2.45
2023-03-10T23:53:44.910Z,2.15
2023-03-10T23:56:12.393Z,1.98
2023-03-10T23:58:40.764Z,1.92
